This is the latest recevied weather packets stored in our database for station/object N6RDS-8. If no packets are shown the sender has not sent any weather packets the latest 1 day(s).
| Time | Temp. | Humidity | Pressure | Rain* | Wind** | Luminosity | Snow |
|---|---|---|---|---|---|---|---|
| 1778014709 | 23.89° C | 33% | 1014.9 hPa | 0 mm | 2.24 m/s, 237° | 803 W/m² | - |
| 1778014408 | 24.44° C | 34% | 1014.8 hPa | 0 mm | 1.79 m/s, 84° | 734 W/m² | - |
| 1778014104 | 23.89° C | 34% | 1014.8 hPa | 0 mm | 0.89 m/s, 206° | 219 W/m² | - |
| 1778013802 | 23.33° C | 35% | 1014.7 hPa | 0 mm | 0.89 m/s, 201° | 170 W/m² | - |
| 1778013499 | 23.33° C | 35% | 1015.1 hPa | 0 mm | 2.24 m/s, 158° | 645 W/m² | - |
| 1778013196 | 23.89° C | 34% | 1014.8 hPa | 0 mm | 2.24 m/s, 194° | 252 W/m² | - |
| 1778012892 | 24.44° C | 35% | 1015 hPa | 0 mm | 2.24 m/s, 178° | 874 W/m² | - |
| 1778012588 | 23.89° C | 34% | 1014.8 hPa | 0 mm | 2.68 m/s, 219° | 886 W/m² | - |
| 1778012286 | 25° C | 35% | 1014.8 hPa | 0 mm | 3.13 m/s, 182° | 171 W/m² | - |
| 1778011983 | 23.89° C | 35% | 1015 hPa | 0 mm | 2.24 m/s, 200° | 201 W/m² | - |
| 1778011681 | 23.89° C | 36% | 1015 hPa | 0 mm | 1.79 m/s, 206° | 936 W/m² | - |
| 1778011378 | 23.33° C | 35% | 1014.8 hPa | 0 mm | 2.68 m/s, 210° | 852 W/m² | - |
| 1778011073 | 22.22° C | 37% | 1015 hPa | 0 mm | 2.68 m/s, 230° | 914 W/m² | - |
| 1778010771 | 22.22° C | 38% | 1015 hPa | 0 mm | 0.89 m/s, 209° | 966 W/m² | - |
| 1778010468 | 22.78° C | 37% | 1015.5 hPa | 0 mm | 1.34 m/s, 169° | 231 W/m² | - |
| 1778010165 | 21.67° C | 38% | 1015.5 hPa | 0 mm | 3.13 m/s, 175° | 225 W/m² | - |
| 1778009860 | 21.67° C | 41% | 1015.5 hPa | 0 mm | 1.34 m/s, 285° | 225 W/m² | - |
| 1778009558 | 23.33° C | 39% | 1015.7 hPa | 0 mm | 1.79 m/s, 234° | 184 W/m² | - |
| 1778009256 | 22.78° C | 38% | 1015.7 hPa | 0 mm | 2.68 m/s, 198° | 905 W/m² | - |
| 1778008953 | 22.22° C | 40% | 1015.8 hPa | 0 mm | 1.79 m/s, 154° | 1047 W/m² | - |
| 1778008646 | 22.78° C | 40% | 1015.6 hPa | 0 mm | 1.34 m/s, 233° | 226 W/m² | - |
| 1778008344 | 21.67° C | 41% | 1015.6 hPa | 0 mm | 1.34 m/s, 178° | 961 W/m² | - |
| 1778008039 | 23.33° C | 39% | 1015.8 hPa | 0 mm | 3.13 m/s, 183° | 222 W/m² | - |
| 1778007733 | 23.33° C | 39% | 1016 hPa | 0 mm | 1.79 m/s, 192° | 951 W/m² | - |
| 1778007430 | 21.67° C | 41% | 1016.1 hPa | 0 mm | 1.79 m/s, 113° | 889 W/m² | - |
* Rain latest hour (hover to see other rain measurements)
** Current wind speed in m/s (hover to see current wind gust speed)